Time;durP1;ratioP1;P1;durP2;ratioP2;P2;SDS_P1;SDS_P2;PMS_P1;PMS_P2;Temp;Humidity;BMP_temperature;BMP_pressure;BME280_temperature;BME280_humidity;BME280_pressure;Samples;Min_cycle;Max_cycle;Signal;HPM_P1;HPM_P2
2023/05/11 00:02:00;;;;;;;1.63;1.43;;;12.50;99.90;;;;;;4977407;28;20180;-80
2023/05/11 00:04:25;;;;;;;6.17;1.10;;;12.40;99.90;;;;;;4977621;28;20263;-79
2023/05/11 00:06:51;;;;;;;1.50;1.40;;;12.40;99.90;;;;;;4977301;28;20925;-80
2023/05/11 00:09:16;;;;;;;3.20;1.77;;;12.40;99.90;;;;;;4976211;28;20578;-80
2023/05/11 00:11:42;;;;;;;1.47;1.37;;;12.40;99.90;;;;;;4977052;28;20220;-80
2023/05/11 00:14:07;;;;;;;1.27;1.17;;;12.50;99.90;;;;;;4977252;28;20177;-80
2023/05/11 00:16:33;;;;;;;0.90;0.90;;;12.40;99.90;;;;;;4959896;28;20191;-81
2023/05/11 00:18:58;;;;;;;4.23;3.40;;;12.40;99.90;;;;;;4975622;28;20665;-80
2023/05/11 00:21:24;;;;;;;1.90;1.40;;;12.40;99.90;;;;;;4977279;28;20234;-80
2023/05/11 00:23:50;;;;;;;2.30;1.47;;;12.40;99.90;;;;;;4976673;28;20180;-80
2023/05/11 00:26:15;;;;;;;1.60;1.50;;;12.40;99.90;;;;;;4976687;28;20960;-80
2023/05/11 00:28:41;;;;;;;1.43;1.27;;;12.40;99.90;;;;;;4974315;28;20200;-78
2023/05/11 00:31:06;;;;;;;2.23;1.20;;;12.40;99.90;;;;;;4976289;28;20204;-80
2023/05/11 00:33:32;;;;;;;1.93;1.73;;;12.40;99.90;;;;;;4959078;28;20223;-80
2023/05/11 00:35:57;;;;;;;1.40;1.30;;;12.40;99.90;;;;;;4976663;28;20638;-79
2023/05/11 00:38:23;;;;;;;2.80;1.70;;;12.40;99.90;;;;;;4974926;28;20287;-80
2023/05/11 00:40:49;;;;;;;4.40;4.10;;;12.40;99.90;;;;;;4975719;28;20551;-80
2023/05/11 00:43:15;;;;;;;13.60;12.30;;;12.40;99.90;;;;;;4976384;28;20193;-80
2023/05/11 00:45:41;;;;;;;5.37;4.87;;;12.40;99.90;;;;;;4976196;28;20918;-80
2023/05/11 00:48:07;;;;;;;4.40;4.00;;;12.40;99.90;;;;;;4975313;28;20624;-78
2023/05/11 00:50:33;;;;;;;2.37;2.17;;;12.40;99.90;;;;;;4975847;28;20172;-80
2023/05/11 00:52:59;;;;;;;3.30;3.03;;;12.50;99.90;;;;;;4976016;28;20837;-79
2023/05/11 00:55:26;;;;;;;3.00;1.67;;;12.50;99.90;;;;;;4975830;28;20411;-80
2023/05/11 00:57:51;;;;;;;11.53;3.63;;;12.50;99.90;;;;;;4974983;28;20210;-79
2023/05/11 01:00:17;;;;;;;3.07;1.43;;;12.50;99.90;;;;;;4975687;28;20412;-80
2023/05/11 01:02:43;;;;;;;2.70;1.63;;;12.50;99.90;;;;;;4975957;28;20267;-80
2023/05/11 01:05:09;;;;;;;1.97;1.83;;;12.50;99.90;;;;;;4976406;28;20176;-80
2023/05/11 01:08:03;;;;;;;1.30;1.20;;;12.50;99.90;;;;;;4975501;28;20220;-79
2023/05/11 01:10:32;;;;;;;1.30;1.20;;;12.60;99.90;;;;;;4967693;28;20447;-81
2023/05/11 01:13:12;;;;;;;2.43;1.40;;;12.50;99.90;;;;;;4975838;28;20463;-80
2023/05/11 01:15:50;;;;;;;2.83;1.67;;;12.50;99.90;;;;;;4976592;28;20796;-80
2023/05/11 01:18:48;;;;;;;1.40;1.30;;;12.40;99.90;;;;;;4974496;28;20490;-79
2023/05/11 01:21:16;;;;;;;3.20;1.20;;;12.40;99.90;;;;;;4929857;28;20439;-79
2023/05/11 01:23:43;;;;;;;1.83;1.37;;;12.40;99.90;;;;;;4975219;28;20514;-79
2023/05/11 01:26:16;;;;;;;3.60;1.37;;;12.40;99.90;;;;;;4974474;28;20443;-79
2023/05/11 01:29:06;;;;;;;1.70;1.60;;;12.40;99.90;;;;;;4975131;28;20466;-78
2023/05/11 01:31:33;;;;;;;1.20;1.10;;;12.40;99.90;;;;;;4975280;28;20459;-80
2023/05/11 01:34:03;;;;;;;1.83;1.43;;;12.40;99.90;;;;;;4975303;28;20415;-80
2023/05/11 01:36:36;;;;;;;7.33;6.83;;;12.40;99.90;;;;;;4974339;28;20439;-78
2023/05/11 01:39:06;;;;;;;6.03;5.27;;;12.50;99.90;;;;;;4974645;28;20451;-79
2023/05/11 01:41:34;;;;;;;4.03;3.53;;;12.60;99.90;;;;;;4974350;28;20432;-80
2023/05/11 01:44:04;;;;;;;4.37;2.90;;;12.70;99.90;;;;;;4975041;28;20435;-80
2023/05/11 01:46:32;;;;;;;2.93;2.07;;;12.70;99.90;;;;;;4973786;28;20495;-80
2023/05/11 01:48:59;;;;;;;2.77;1.60;;;12.70;99.90;;;;;;4974390;28;20451;-79
2023/05/11 01:51:27;;;;;;;1.47;1.33;;;12.70;99.90;;;;;;4973996;28;20427;-80
2023/05/11 01:53:54;;;;;;;4.63;3.23;;;12.60;99.90;;;;;;4975580;28;20428;-80
2023/05/11 01:56:21;;;;;;;9.97;9.07;;;12.60;99.90;;;;;;4974499;28;20452;-80
2023/05/11 01:58:49;;;;;;;9.37;7.90;;;12.50;99.90;;;;;;4958082;28;20497;-79
2023/05/11 02:01:16;;;;;;;3.73;3.13;;;12.50;99.90;;;;;;4974956;28;20444;-80
2023/05/11 02:03:42;;;;;;;5.17;3.70;;;12.40;99.90;;;;;;4975570;28;20442;-79
2023/05/11 02:06:10;;;;;;;4.40;4.00;;;12.40;99.90;;;;;;4975046;28;20443;-80
2023/05/11 02:08:38;;;;;;;4.53;4.13;;;12.30;99.90;;;;;;4975107;28;20455;-80
2023/05/11 02:11:05;;;;;;;3.37;3.03;;;12.30;99.90;;;;;;4975533;28;20937;-80
2023/05/11 02:13:33;;;;;;;2.53;2.33;;;12.20;99.90;;;;;;4975586;28;20964;-80
2023/05/11 02:16:00;;;;;;;4.70;2.47;;;12.20;99.90;;;;;;4974611;28;20958;-80
2023/05/11 02:18:27;;;;;;;2.37;2.17;;;12.20;99.90;;;;;;4974562;28;20463;-80
2023/05/11 02:20:54;;;;;;;1.67;1.57;;;12.10;99.90;;;;;;4975497;28;20424;-80
2023/05/11 02:23:22;;;;;;;1.90;1.80;;;12.10;99.90;;;;;;4977673;28;20426;-80
2023/05/11 02:25:50;;;;;;;3.00;1.37;;;12.20;99.90;;;;;;4978096;28;20498;-80
2023/05/11 02:28:16;;;;;;;1.33;1.10;;;12.10;99.90;;;;;;4979286;28;20466;-80
2023/05/11 02:30:45;;;;;;;1.60;1.20;;;12.10;99.90;;;;;;4979630;28;20435;-79
2023/05/11 02:33:16;;;;;;;1.50;0.87;;;12.10;99.90;;;;;;4979229;28;20676;-80
2023/05/11 02:35:43;;;;;;;1.50;1.20;;;12.10;99.90;;;;;;4978407;28;20440;-78
2023/05/11 02:38:11;;;;;;;1.43;1.33;;;12.10;99.90;;;;;;4978516;28;20451;-79
2023/05/11 02:40:45;;;;;;;1.13;1.03;;;12.10;99.90;;;;;;4979086;28;20917;-79
2023/05/11 02:43:13;;;;;;;2.37;1.00;;;12.10;99.90;;;;;;4978588;28;20430;-79
2023/05/11 02:45:43;;;;;;;2.83;1.10;;;12.10;99.90;;;;;;4977529;28;20455;-80
2023/05/11 02:48:15;;;;;;;2.20;1.20;;;12.10;99.90;;;;;;4978105;28;20471;-79
2023/05/11 02:50:41;;;;;;;1.53;1.30;;;12.10;99.90;;;;;;4979502;28;20490;-80
2023/05/11 02:53:13;;;;;;;2.10;1.20;;;12.10;99.90;;;;;;4978985;28;20455;-80
2023/05/11 02:55:40;;;;;;;2.87;1.17;;;12.10;99.90;;;;;;4978380;28;20988;-80
2023/05/11 02:58:06;;;;;;;2.40;1.73;;;12.10;99.90;;;;;;4978318;28;20485;-80
2023/05/11 03:00:31;;;;;;;1.43;1.00;;;12.10;99.90;;;;;;4978348;28;20514;-80
2023/05/11 03:02:58;;;;;;;1.33;1.20;;;12.10;99.90;;;;;;4977866;28;20180;-80
2023/05/11 03:05:23;;;;;;;1.07;0.90;;;12.10;99.90;;;;;;4978767;28;20591;-80
2023/05/11 03:07:51;;;;;;;5.37;1.20;;;12.10;99.90;;;;;;4978618;28;20457;-80
2023/05/11 03:10:16;;;;;;;1.10;1.10;;;12.10;99.90;;;;;;4978136;28;20172;-80
2023/05/11 03:12:43;;;;;;;2.80;1.50;;;12.20;99.90;;;;;;4977646;28;20518;-80
2023/05/11 03:15:11;;;;;;;1.90;1.67;;;12.10;99.90;;;;;;4978171;28;20204;-80
2023/05/11 03:17:38;;;;;;;2.50;1.30;;;12.10;99.90;;;;;;4978263;28;20502;-80
2023/05/11 03:20:06;;;;;;;1.87;1.20;;;12.10;99.90;;;;;;4978107;28;20863;-80
2023/05/11 03:22:33;;;;;;;1.37;1.10;;;12.10;99.90;;;;;;4978503;28;20801;-80
2023/05/11 03:25:01;;;;;;;3.20;1.20;;;12.00;99.90;;;;;;4977789;28;20435;-80
2023/05/11 03:27:28;;;;;;;2.03;1.27;;;12.00;99.90;;;;;;4978112;28;20984;-80
2023/05/11 03:29:55;;;;;;;1.47;1.37;;;12.00;99.90;;;;;;4977926;28;20415;-80
2023/05/11 03:32:20;;;;;;;1.50;1.40;;;12.00;99.90;;;;;;4977813;28;21220;-80
2023/05/11 03:34:46;;;;;;;3.10;1.40;;;12.00;99.90;;;;;;4976283;28;20435;-80
2023/05/11 03:37:12;;;;;;;1.50;1.40;;;12.10;99.90;;;;;;4977892;28;20698;-80
2023/05/11 03:39:40;;;;;;;1.50;1.40;;;12.10;99.90;;;;;;4977678;28;20200;-80
2023/05/11 03:42:07;;;;;;;1.60;1.50;;;12.10;99.90;;;;;;4978266;28;20424;-80
2023/05/11 03:44:33;;;;;;;1.70;1.60;;;12.00;99.90;;;;;;4977059;28;20443;-80
2023/05/11 03:47:01;;;;;;;1.80;1.40;;;12.10;99.90;;;;;;4977420;28;20424;-80
2023/05/11 03:49:28;;;;;;;1.53;1.43;;;12.10;99.90;;;;;;4977706;28;20431;-80
2023/05/11 03:51:54;;;;;;;1.30;1.20;;;12.10;99.90;;;;;;4977435;28;20455;-80
2023/05/11 03:54:20;;;;;;;1.37;1.27;;;12.10;99.90;;;;;;4976332;28;20436;-79
2023/05/11 03:56:45;;;;;;;1.17;1.07;;;12.00;99.90;;;;;;4977436;28;20474;-80
2023/05/11 03:59:15;;;;;;;1.13;1.03;;;12.10;99.90;;;;;;4977765;28;20243;-80
2023/05/11 04:01:42;;;;;;;1.57;1.33;;;12.10;99.90;;;;;;4977656;28;20179;-80
2023/05/11 04:04:07;;;;;;;1.50;1.40;;;12.00;99.90;;;;;;4977425;28;20464;-79
2023/05/11 04:06:33;;;;;;;1.50;1.40;;;12.00;99.90;;;;;;4977912;28;20420;-80
2023/05/11 04:08:59;;;;;;;2.00;1.70;;;12.00;99.90;;;;;;4977251;28;20227;-80
2023/05/11 04:11:26;;;;;;;1.57;1.40;;;12.10;99.90;;;;;;4977362;28;20187;-79
2023/05/11 04:13:51;;;;;;;1.70;1.50;;;12.10;99.90;;;;;;4976923;28;20653;-80
2023/05/11 04:16:17;;;;;;;1.40;1.30;;;12.10;99.90;;;;;;4977961;28;20458;-80
2023/05/11 04:18:43;;;;;;;2.20;1.60;;;12.10;99.90;;;;;;4977446;28;20685;-80
2023/05/11 04:21:08;;;;;;;2.40;1.43;;;12.10;99.90;;;;;;4978055;28;20311;-80
2023/05/11 04:23:34;;;;;;;1.73;1.63;;;12.10;99.90;;;;;;4977001;28;20585;-80
2023/05/11 04:25:59;;;;;;;1.43;1.13;;;12.10;99.90;;;;;;4977695;28;20638;-80
2023/05/11 04:28:26;;;;;;;1.40;1.30;;;12.20;99.90;;;;;;4977911;28;20196;-81
2023/05/11 04:30:53;;;;;;;2.13;1.83;;;12.20;99.90;;;;;;4977933;28;20176;-80
2023/05/11 04:33:19;;;;;;;2.10;2.00;;;12.20;99.90;;;;;;4976533;28;20470;-80
2023/05/11 04:35:44;;;;;;;2.90;1.73;;;12.10;99.90;;;;;;4977704;28;20494;-80
2023/05/11 04:38:10;;;;;;;4.53;2.10;;;12.20;99.90;;;;;;4977319;28;20686;-80
2023/05/11 04:40:35;;;;;;;1.60;1.50;;;12.20;99.90;;;;;;4977893;28;20236;-80
2023/05/11 04:43:01;;;;;;;2.80;1.60;;;12.20;99.90;;;;;;4976761;28;20512;-79
2023/05/11 04:45:26;;;;;;;1.93;1.43;;;12.30;99.90;;;;;;4984265;28;20191;-81
2023/05/11 04:47:52;;;;;;;2.50;2.13;;;12.20;99.90;;;;;;4977201;28;20200;-79
2023/05/11 04:50:17;;;;;;;2.07;1.87;;;12.30;99.90;;;;;;4977232;28;20187;-80
2023/05/11 04:52:43;;;;;;;2.27;1.67;;;12.30;99.90;;;;;;4977003;28;20203;-80
2023/05/11 04:55:08;;;;;;;2.47;1.40;;;12.20;99.90;;;;;;4976162;28;20172;-80
2023/05/11 04:57:34;;;;;;;4.93;1.83;;;12.10;99.90;;;;;;4976966;28;20194;-79
2023/05/11 05:00:00;;;;;;;2.03;1.23;;;12.10;99.90;;;;;;4977242;28;20192;-81
2023/05/11 05:02:25;;;;;;;7.37;2.27;;;12.20;99.90;;;;;;4975589;28;20185;-80
2023/05/11 05:04:50;;;;;;;1.50;1.40;;;12.20;99.90;;;;;;4977019;28;20176;-80
2023/05/11 05:07:16;;;;;;;2.40;1.93;;;12.30;99.90;;;;;;4976613;28;20713;-80
2023/05/11 05:09:41;;;;;;;1.70;1.60;;;12.40;99.90;;;;;;4977001;28;20176;-80
2023/05/11 05:12:07;;;;;;;1.50;1.40;;;12.40;99.90;;;;;;4971621;28;20208;-80
2023/05/11 05:14:32;;;;;;;1.77;1.67;;;12.40;99.90;;;;;;4970708;28;20626;-80
2023/05/11 05:17:00;;;;;;;2.43;1.67;;;12.40;99.90;;;;;;4975790;28;22658;-80
2023/05/11 05:19:25;;;;;;;1.70;1.60;;;12.40;99.90;;;;;;4975599;28;20168;-79
2023/05/11 05:21:51;;;;;;;1.63;1.53;;;12.40;99.90;;;;;;4972852;28;20447;-78
2023/05/11 05:24:16;;;;;;;3.77;2.10;;;12.40;99.90;;;;;;4974636;28;20184;-78
2023/05/11 05:26:42;;;;;;;3.20;1.90;;;12.40;99.90;;;;;;4975299;28;20311;-78
2023/05/11 05:29:08;;;;;;;1.70;1.60;;;12.40;99.90;;;;;;4974693;28;20215;-78
2023/05/11 05:31:33;;;;;;;2.50;1.90;;;12.50;99.90;;;;;;4973231;28;20172;-80
2023/05/11 05:33:59;;;;;;;1.67;1.57;;;12.60;99.90;;;;;;4973514;28;20199;-79
2023/05/11 05:36:24;;;;;;;1.70;1.60;;;12.70;99.90;;;;;;4975243;28;20419;-78
2023/05/11 05:38:50;;;;;;;2.37;2.17;;;12.80;99.90;;;;;;4973635;28;20696;-79
2023/05/11 05:41:16;;;;;;;2.20;1.70;;;13.00;99.90;;;;;;4972766;28;20630;-78
2023/05/11 05:43:41;;;;;;;1.93;1.80;;;13.00;99.90;;;;;;4973673;28;20184;-79
2023/05/11 05:46:07;;;;;;;1.50;1.40;;;13.10;99.90;;;;;;4973737;28;20531;-79
2023/05/11 05:48:32;;;;;;;5.67;1.80;;;13.20;99.90;;;;;;4973479;28;20227;-79
2023/05/11 05:50:59;;;;;;;1.60;1.50;;;13.30;99.90;;;;;;4972964;28;20188;-79
2023/05/11 05:53:24;;;;;;;2.30;1.90;;;13.40;99.90;;;;;;4965637;28;20255;-78
2023/05/11 05:55:50;;;;;;;3.30;2.00;;;13.60;99.90;;;;;;4973394;28;20419;-79
2023/05/11 05:58:15;;;;;;;4.30;1.63;;;13.50;99.90;;;;;;4972739;28;20287;-79
2023/05/11 06:00:41;;;;;;;3.90;1.47;;;13.60;99.90;;;;;;4972893;28;20632;-79
2023/05/11 06:03:06;;;;;;;3.30;1.70;;;13.70;99.90;;;;;;4972862;28;20172;-79
2023/05/11 06:05:32;;;;;;;1.93;1.70;;;13.60;99.90;;;;;;4973441;28;20180;-78
2023/05/11 06:07:57;;;;;;;3.10;1.47;;;13.60;99.90;;;;;;4973099;28;20255;-79
2023/05/11 06:10:23;;;;;;;1.90;1.80;;;13.60;99.90;;;;;;4972965;28;20259;-79
2023/05/11 06:12:48;;;;;;;2.33;2.10;;;13.60;99.90;;;;;;4972255;28;20199;-77
2023/05/11 06:15:14;;;;;;;2.10;1.67;;;13.60;99.90;;;;;;4972556;28;20188;-77
2023/05/11 06:17:39;;;;;;;1.67;1.57;;;13.50;99.90;;;;;;4972784;28;20291;-79
2023/05/11 06:20:06;;;;;;;3.33;1.47;;;13.40;99.90;;;;;;4972951;28;20164;-78
2023/05/11 06:22:31;;;;;;;2.50;1.60;;;13.40;99.90;;;;;;4972114;28;20184;-76
2023/05/11 06:24:57;;;;;;;1.93;1.77;;;13.40;99.90;;;;;;4973102;28;20845;-77
2023/05/11 06:27:22;;;;;;;2.83;1.70;;;13.40;99.90;;;;;;4972181;28;20288;-77
2023/05/11 06:29:48;;;;;;;2.10;1.97;;;13.40;99.90;;;;;;4972775;28;20179;-77
2023/05/11 06:32:13;;;;;;;2.20;1.63;;;13.40;99.90;;;;;;4955690;28;20199;-78
2023/05/11 06:34:39;;;;;;;2.17;1.97;;;13.50;99.90;;;;;;4973017;28;20608;-78
2023/05/11 06:37:04;;;;;;;1.80;1.70;;;13.60;99.90;;;;;;4973116;28;20172;-79
2023/05/11 06:39:30;;;;;;;1.80;1.70;;;13.60;99.90;;;;;;4970356;28;20231;-79
2023/05/11 06:41:55;;;;;;;2.83;1.70;;;13.70;99.90;;;;;;4972147;28;20646;-80
2023/05/11 06:44:21;;;;;;;2.00;1.60;;;13.90;99.90;;;;;;4971858;28;20188;-79
2023/05/11 06:46:46;;;;;;;2.03;1.93;;;14.10;99.90;;;;;;4972780;28;20172;-80
2023/05/11 06:49:12;;;;;;;1.67;1.57;;;14.00;99.90;;;;;;4973323;28;20180;-80
2023/05/11 06:51:37;;;;;;;2.07;1.73;;;14.00;99.90;;;;;;4975410;28;20177;-80
2023/05/11 06:54:03;;;;;;;3.33;1.73;;;14.00;99.90;;;;;;4973554;28;20173;-80
2023/05/11 06:56:30;;;;;;;1.63;1.53;;;14.00;99.90;;;;;;4955842;28;20168;-79
2023/05/11 06:58:56;;;;;;;1.50;1.40;;;14.00;99.90;;;;;;4971876;28;20246;-79
2023/05/11 07:01:22;;;;;;;1.40;1.30;;;14.10;99.90;;;;;;4972746;28;20415;-78
2023/05/11 07:03:48;;;;;;;1.57;1.47;;;14.20;99.90;;;;;;4971710;28;20185;-79
2023/05/11 07:06:13;;;;;;;1.80;1.60;;;14.00;99.90;;;;;;4972784;28;20195;-80
2023/05/11 07:08:39;;;;;;;1.97;1.73;;;14.10;99.90;;;;;;4972721;28;20467;-79
2023/05/11 07:11:05;;;;;;;1.70;1.60;;;14.10;99.90;;;;;;4958657;28;20169;-79
2023/05/11 07:13:31;;;;;;;2.63;2.43;;;14.20;99.90;;;;;;4976628;28;20232;-80
2023/05/11 07:15:57;;;;;;;1.70;1.60;;;14.10;99.90;;;;;;4976271;28;20447;-78
2023/05/11 07:18:22;;;;;;;2.80;1.60;;;14.10;99.90;;;;;;4975165;28;20242;-77
2023/05/11 07:20:49;;;;;;;1.87;1.60;;;14.10;99.90;;;;;;4976576;28;20184;-79
2023/05/11 07:23:15;;;;;;;1.80;1.70;;;14.00;99.90;;;;;;4976451;28;20239;-79
2023/05/11 07:25:41;;;;;;;2.40;2.20;;;14.00;99.90;;;;;;4976110;28;20427;-77
2023/05/11 07:28:07;;;;;;;1.73;1.63;;;14.20;99.90;;;;;;4975556;28;20467;-77
2023/05/11 07:30:32;;;;;;;1.70;1.60;;;14.30;99.90;;;;;;4975400;28;20180;-78
2023/05/11 07:32:58;;;;;;;2.47;2.27;;;14.40;99.90;;;;;;4975866;28;20200;-78
2023/05/11 07:35:23;;;;;;;1.77;1.67;;;14.50;99.90;;;;;;4976025;28;20219;-77
2023/05/11 07:37:49;;;;;;;1.70;1.60;;;14.70;99.90;;;;;;4968033;28;20205;-77
2023/05/11 07:40:14;;;;;;;3.67;1.97;;;14.60;99.90;;;;;;4974083;28;20175;-76
2023/05/11 07:42:40;;;;;;;3.27;2.97;;;14.70;99.90;;;;;;4975768;28;20180;-74
2023/05/11 07:45:06;;;;;;;3.00;2.30;;;14.70;99.90;;;;;;4975619;28;20199;-75
2023/05/11 07:47:32;;;;;;;2.60;2.00;;;14.60;99.90;;;;;;4974833;28;20294;-76
2023/05/11 07:49:57;;;;;;;6.73;5.20;;;14.70;99.90;;;;;;4975203;28;20511;-76
2023/05/11 07:52:23;;;;;;;4.90;3.53;;;14.60;99.90;;;;;;4957372;28;20200;-76
2023/05/11 07:54:48;;;;;;;2.53;2.10;;;14.70;99.90;;;;;;4975452;28;20175;-76
2023/05/11 07:57:14;;;;;;;4.17;1.70;;;14.70;99.90;;;;;;4974352;28;20239;-76
2023/05/11 07:59:39;;;;;;;1.97;1.77;;;14.70;99.90;;;;;;4968878;28;20840;-77
2023/05/11 08:02:07;;;;;;;2.40;2.20;;;14.30;99.90;;;;;;4975495;28;20172;-76
2023/05/11 08:04:32;;;;;;;2.00;1.90;;;14.30;99.90;;;;;;4975354;28;20169;-76
2023/05/11 08:06:58;;;;;;;2.33;2.13;;;14.30;99.90;;;;;;4975258;28;20430;-76
2023/05/11 08:09:23;;;;;;;4.20;1.60;;;14.50;99.90;;;;;;4973598;28;20642;-76
2023/05/11 08:11:49;;;;;;;4.00;1.80;;;14.70;99.90;;;;;;4975139;28;20251;-76
2023/05/11 08:14:15;;;;;;;3.30;2.20;;;14.70;99.90;;;;;;4975244;28;20223;-76
2023/05/11 08:16:40;;;;;;;2.30;1.77;;;14.50;99.90;;;;;;4974991;28;20177;-76
2023/05/11 08:19:06;;;;;;;2.40;2.03;;;14.60;99.90;;;;;;4973105;28;20573;-77
2023/05/11 08:21:31;;;;;;;5.77;2.13;;;14.80;99.90;;;;;;4973560;28;20176;-77
2023/05/11 08:23:57;;;;;;;2.43;2.27;;;15.00;99.90;;;;;;4974818;28;20168;-77
2023/05/11 08:26:22;;;;;;;2.70;1.90;;;15.30;99.90;;;;;;4972466;28;20531;-79
2023/05/11 08:28:48;;;;;;;2.97;2.40;;;15.40;99.90;;;;;;4974503;28;20282;-77
2023/05/11 08:31:13;;;;;;;3.17;2.87;;;15.50;99.90;;;;;;4974696;28;20212;-77
2023/05/11 08:33:39;;;;;;;2.80;2.37;;;15.50;99.90;;;;;;4974727;28;20208;-76
2023/05/11 08:36:05;;;;;;;4.40;2.30;;;15.50;99.90;;;;;;4973890;28;20700;-77
2023/05/11 08:38:32;;;;;;;2.70;2.20;;;15.30;99.90;;;;;;4974192;28;20191;-77
2023/05/11 08:40:57;;;;;;;3.67;2.10;;;15.30;99.90;;;;;;4974587;28;20427;-78
2023/05/11 08:43:25;;;;;;;2.40;1.90;;;15.20;99.90;;;;;;4974525;28;20431;-78
2023/05/11 08:45:56;;;;;;;2.47;2.10;;;14.90;99.90;;;;;;4972884;28;20184;-77
2023/05/11 08:48:21;;;;;;;2.00;1.90;;;14.90;99.90;;;;;;4973344;28;20467;-78
2023/05/11 08:50:47;;;;;;;1.97;1.67;;;15.10;99.90;;;;;;4973749;28;20439;-79
2023/05/11 08:53:13;;;;;;;1.87;1.63;;;15.30;99.90;;;;;;4972803;28;20255;-77
2023/05/11 08:55:40;;;;;;;1.87;1.63;;;15.30;99.90;;;;;;4974275;28;20223;-77
2023/05/11 08:58:06;;;;;;;2.07;1.90;;;15.30;99.90;;;;;;4973237;28;20467;-78
2023/05/11 09:00:32;;;;;;;1.97;1.70;;;15.00;99.90;;;;;;4974011;28;20435;-77
2023/05/11 09:02:59;;;;;;;2.37;1.70;;;15.20;99.90;;;;;;4973245;28;20188;-78
2023/05/11 09:05:26;;;;;;;1.90;1.80;;;15.00;99.90;;;;;;4954852;29;20470;-78
2023/05/11 09:07:55;;;;;;;5.90;2.07;;;15.10;99.90;;;;;;4969823;28;20478;-78
2023/05/11 09:10:21;;;;;;;3.30;1.90;;;15.10;99.90;;;;;;4973706;28;20795;-77
2023/05/11 09:12:46;;;;;;;2.20;2.00;;;14.90;99.90;;;;;;4973544;28;20471;-75
2023/05/11 09:15:12;;;;;;;1.90;1.80;;;14.90;99.90;;;;;;4973468;28;20645;-76
2023/05/11 09:17:38;;;;;;;4.53;2.63;;;14.90;99.90;;;;;;4973765;28;20682;-78
2023/05/11 09:20:05;;;;;;;2.30;2.17;;;15.20;99.90;;;;;;4972142;28;20222;-76
2023/05/11 09:22:42;;;;;;;3.10;2.07;;;15.10;99.90;;;;;;4973053;28;20184;-77
2023/05/11 09:25:12;;;;;;;2.27;2.17;;;15.00;99.90;;;;;;4973782;28;20427;-77
2023/05/11 09:27:45;;;;;;;2.40;2.20;;;15.20;99.90;;;;;;4972059;28;20538;-76
2023/05/11 09:30:16;;;;;;;2.83;2.10;;;15.30;99.90;;;;;;4974753;28;20436;-77
2023/05/11 09:32:52;;;;;;;2.20;1.97;;;15.30;99.90;;;;;;4971871;28;20498;-76
2023/05/11 09:35:22;;;;;;;3.77;2.30;;;15.30;99.90;;;;;;4973428;28;20434;-77
2023/05/11 09:38:06;;;;;;;3.53;3.33;;;15.20;99.90;;;;;;4973624;28;20435;-77
2023/05/11 09:40:34;;;;;;;2.37;1.90;;;15.00;99.90;;;;;;4973726;28;20514;-78
2023/05/11 09:43:00;;;;;;;2.80;2.60;;;14.90;99.90;;;;;;4972350;28;20443;-77
2023/05/11 09:45:40;;;;;;;1.93;1.83;;;14.90;99.90;;;;;;4973404;28;20431;-78
2023/05/11 09:48:20;;;;;;;2.00;1.80;;;14.70;99.90;;;;;;4972501;28;20459;-78
2023/05/11 09:50:46;;;;;;;2.27;2.03;;;14.70;99.90;;;;;;4974983;28;20419;-77
2023/05/11 09:53:12;;;;;;;2.13;1.93;;;14.60;99.90;;;;;;4973076;28;20824;-77
2023/05/11 09:55:38;;;;;;;2.33;2.13;;;14.80;99.90;;;;;;4966989;28;20430;-77
2023/05/11 09:58:03;;;;;;;3.10;2.30;;;15.10;99.90;;;;;;4973159;28;20688;-77
2023/05/11 10:00:30;;;;;;;2.37;2.17;;;14.90;99.90;;;;;;4973077;28;20248;-76
2023/05/11 10:03:06;;;;;;;2.53;1.93;;;15.10;99.90;;;;;;4972510;28;20184;-78
2023/05/11 10:05:35;;;;;;;5.70;3.33;;;15.20;99.90;;;;;;4966298;28;20427;-78
2023/05/11 10:08:03;;;;;;;2.50;2.30;;;15.00;99.90;;;;;;4972481;28;20471;-78
2023/05/11 10:10:30;;;;;;;3.67;3.37;;;15.10;99.90;;;;;;4955591;28;20814;-77
2023/05/11 10:13:02;;;;;;;2.57;2.37;;;15.20;99.90;;;;;;4972301;28;20503;-77
2023/05/11 10:15:29;;;;;;;2.27;2.17;;;15.20;99.90;;;;;;4964835;28;21024;-77
2023/05/11 10:17:57;;;;;;;4.40;3.10;;;15.40;99.90;;;;;;4958641;28;20479;-71
2023/05/11 10:20:24;;;;;;;2.73;2.27;;;15.30;99.90;;;;;;4966437;28;20456;-76
2023/05/11 10:22:54;;;;;;;5.50;2.53;;;15.30;99.90;;;;;;4966348;28;20444;-76
2023/05/11 10:25:23;;;;;;;2.50;2.30;;;15.20;99.90;;;;;;4972491;28;20439;-77
2023/05/11 10:27:50;;;;;;;2.73;2.53;;;15.30;99.90;;;;;;4967162;28;20543;-76
2023/05/11 10:30:16;;;;;;;3.30;2.50;;;15.30;99.90;;;;;;4963213;28;20427;-76
2023/05/11 10:32:46;;;;;;;2.60;2.07;;;15.50;99.90;;;;;;4966905;28;20510;-76
2023/05/11 10:35:12;;;;;;;2.67;2.30;;;15.60;99.90;;;;;;4972413;28;20177;-75
2023/05/11 10:37:38;;;;;;;2.33;2.13;;;15.70;99.90;;;;;;4962945;28;20443;-75
2023/05/11 10:40:07;;;;;;;2.70;2.50;;;15.70;99.90;;;;;;4963053;28;20436;-75
2023/05/11 10:42:41;;;;;;;2.80;2.43;;;15.80;99.90;;;;;;4963542;28;20499;-75
2023/05/11 10:45:15;;;;;;;2.97;2.73;;;15.70;99.90;;;;;;4969448;28;20956;-75
2023/05/11 10:47:59;;;;;;;4.60;2.93;;;15.70;99.90;;;;;;4966093;28;20447;-75
2023/05/11 10:50:48;;;;;;;2.87;2.57;;;15.80;99.90;;;;;;4966654;28;20511;-75
2023/05/11 10:53:38;;;;;;;3.67;3.37;;;16.10;99.90;;;;;;4969094;28;20472;-75
2023/05/11 10:56:42;;;;;;;2.57;2.43;;;16.20;99.90;;;;;;4970119;28;20450;-74
2023/05/11 10:59:40;;;;;;;3.77;2.90;;;16.40;99.90;;;;;;4967254;28;20454;-75
2023/05/11 11:02:07;;;;;;;3.43;2.67;;;16.30;99.90;;;;;;4967858;28;21118;-75
2023/05/11 11:04:50;;;;;;;2.53;2.00;;;16.20;99.90;;;;;;4975217;28;20530;-75
2023/05/11 11:07:18;;;;;;;3.30;3.10;;;16.20;99.90;;;;;;4976355;28;20442;-75
2023/05/11 11:10:05;;;;;;;5.77;2.63;;;16.30;99.90;;;;;;4976108;28;20451;-75
2023/05/11 11:12:33;;;;;;;6.63;2.57;;;16.20;99.90;;;;;;4975220;28;20518;-75
2023/05/11 11:15:00;;;;;;;3.50;3.20;;;16.30;99.90;;;;;;4976367;28;20883;-75
2023/05/11 11:17:33;;;;;;;2.60;2.40;;;16.60;99.90;;;;;;4976492;28;20535;-75
2023/05/11 11:20:07;;;;;;;2.70;2.50;;;16.60;99.90;;;;;;4975911;28;20495;-74
2023/05/11 11:22:37;;;;;;;2.83;2.63;;;17.00;99.90;;;;;;4975847;28;20435;-74
2023/05/11 11:25:04;;;;;;;2.37;2.20;;;16.90;99.90;;;;;;4976293;28;20518;-74
2023/05/11 11:27:39;;;;;;;2.97;2.77;;;17.10;99.90;;;;;;4975685;28;20455;-74
2023/05/11 11:30:23;;;;;;;2.33;1.93;;;17.10;99.90;;;;;;4975174;28;20430;-74
2023/05/11 11:32:51;;;;;;;2.87;2.67;;;17.20;99.90;;;;;;4975515;28;20459;-74
2023/05/11 11:35:38;;;;;;;2.17;2.07;;;17.20;99.90;;;;;;4975780;28;20426;-75
2023/05/11 11:38:05;;;;;;;2.27;1.93;;;17.10;99.90;;;;;;4975792;28;20439;-75
2023/05/11 11:40:38;;;;;;;2.73;2.23;;;16.80;99.90;;;;;;4978021;28;20512;-75
2023/05/11 11:43:42;;;;;;;2.60;2.40;;;16.60;99.90;;;;;;4986008;28;20447;-75
2023/05/11 11:46:08;;;;;;;3.30;2.20;;;16.90;99.90;;;;;;4975533;28;20416;-75
2023/05/11 11:48:41;;;;;;;2.50;2.30;;;16.70;99.90;;;;;;4975411;28;20798;-75
2023/05/11 11:51:11;;;;;;;3.20;1.40;;;17.00;99.90;;;;;;4975661;28;20168;-75
2023/05/11 11:53:38;;;;;;;4.83;1.97;;;17.00;99.90;;;;;;4974387;28;20463;-75
2023/05/11 11:56:04;;;;;;;1.90;1.80;;;17.20;99.90;;;;;;4974873;28;20423;-75
2023/05/11 11:58:42;;;;;;;2.47;2.27;;;17.50;99.90;;;;;;4975076;28;20458;-75
2023/05/11 12:01:11;;;;;;;2.60;2.40;;;18.00;99.90;;;;;;4974714;28;20436;-74
2023/05/11 12:03:37;;;;;;;5.83;3.07;;;18.10;99.90;;;;;;4972579;28;20502;-74
2023/05/11 12:06:08;;;;;;;2.53;2.33;;;18.20;99.90;;;;;;4974648;28;20446;-74
2023/05/11 12:08:35;;;;;;;2.20;2.10;;;18.30;99.90;;;;;;4965946;28;20467;-74
2023/05/11 12:11:02;;;;;;;2.20;1.50;;;18.30;99.90;;;;;;4964488;28;20439;-74
2023/05/11 12:13:28;;;;;;;2.00;1.90;;;18.50;99.90;;;;;;4975016;28;21047;-74
2023/05/11 12:16:14;;;;;;;2.50;2.30;;;18.60;99.90;;;;;;4975087;28;20455;-75
2023/05/11 12:18:59;;;;;;;2.47;1.60;;;19.20;99.90;;;;;;4973010;28;20475;-75
2023/05/11 12:21:27;;;;;;;2.10;2.00;;;19.40;99.90;;;;;;4966806;28;20437;-75
2023/05/11 12:24:00;;;;;;;1.83;1.73;;;19.50;99.90;;;;;;4975000;28;20423;-75
2023/05/11 12:26:27;;;;;;;1.80;1.70;;;19.20;99.90;;;;;;4974539;28;20498;-75
2023/05/11 12:29:05;;;;;;;2.20;1.77;;;18.90;99.90;;;;;;4974818;28;20843;-75
2023/05/11 12:31:37;;;;;;;1.97;1.87;;;18.60;99.90;;;;;;4973243;28;20518;-75
2023/05/11 12:34:03;;;;;;;1.50;1.40;;;18.50;99.90;;;;;;4974991;28;20435;-75
2023/05/11 12:36:29;;;;;;;1.87;1.40;;;18.70;99.90;;;;;;4974380;28;20416;-75
2023/05/11 12:38:55;;;;;;;1.97;1.30;;;18.60;99.90;;;;;;4974230;28;20184;-75
2023/05/11 12:41:21;;;;;;;2.30;1.40;;;18.50;99.90;;;;;;4974028;28;20443;-75
2023/05/11 12:43:51;;;;;;;1.90;1.33;;;18.60;99.90;;;;;;4974718;28;20179;-75
2023/05/11 12:46:18;;;;;;;2.23;1.70;;;18.40;99.90;;;;;;4974500;28;20787;-75
2023/05/11 12:48:45;;;;;;;1.57;1.47;;;18.30;99.90;;;;;;4974269;28;20490;-75
2023/05/11 12:51:10;;;;;;;1.90;1.77;;;18.30;99.90;;;;;;4974043;28;20835;-75